This is the latest recevied weather packets stored in our database for station/object SP1BMW-13. If no packets are shown the sender has not sent any weather packets the latest 1 day(s).
| Time | Temp. | Humidity | Pressure | Rain* | Wind** | Luminosity | Snow |
|---|---|---|---|---|---|---|---|
| 1778072572 | 9.44° C | 93% | 1006.4 hPa | 0.51 mm | 0.45 m/s, 294° | 83 W/m² | - |
| 1778072512 | 9.44° C | 93% | 1006.3 hPa | 0.51 mm | 0.45 m/s, 315° | 84 W/m² | - |
| 1778072392 | 9.44° C | 93% | 1006.1 hPa | 0.51 mm | 0.45 m/s, 51° | 124 W/m² | - |
| 1778072332 | 9.44° C | 93% | 1006.3 hPa | 0.51 mm | 0 m/s | 138 W/m² | - |
| 1778072272 | 9.44° C | 93% | 1006.4 hPa | 0.51 mm | 0 m/s | 146 W/m² | - |
| 1778072152 | 9.44° C | 93% | 1006.4 hPa | 0.51 mm | 0.89 m/s, 321° | 138 W/m² | - |
| 1778072093 | 9.44° C | 94% | 1006.4 hPa | 0.51 mm | 0.89 m/s, 340° | 137 W/m² | - |
| 1778072032 | 9.44° C | 93% | 1006.3 hPa | 0.51 mm | 0.45 m/s, 280° | 148 W/m² | - |
| 1778071912 | 9.44° C | 93% | 1006.3 hPa | 0.51 mm | 0.89 m/s, 301° | 133 W/m² | - |
| 1778071552 | 9.44° C | 93% | 1006.1 hPa | 0.51 mm | 0 m/s | 90 W/m² | - |
| 1778071432 | 9.44° C | 93% | 1006.3 hPa | 0.51 mm | 0 m/s | 111 W/m² | - |
| 1778071312 | 9.44° C | 93% | 1006.2 hPa | 0.25 mm | 0.45 m/s, 66° | 141 W/m² | - |
| 1778071252 | 9.44° C | 93% | 1006.2 hPa | 0.25 mm | 0.89 m/s, 357° | 148 W/m² | - |
| 1778071072 | 9.44° C | 94% | 1006.4 hPa | 0.25 mm | 0.45 m/s, 35° | 193 W/m² | - |
| 1778070892 | 9.44° C | 93% | 1006.2 hPa | 0.25 mm | 0.45 m/s, 11° | 164 W/m² | - |
| 1778070652 | 9.44° C | 94% | 1006 hPa | 0.25 mm | 1.79 m/s, 318° | 154 W/m² | - |
| 1778070293 | 9.44° C | 93% | 1006 hPa | 0.25 mm | 2.24 m/s, 345° | 157 W/m² | - |
| 1778070232 | 9.44° C | 93% | 1006 hPa | 0.25 mm | 0.89 m/s, 22° | 130 W/m² | - |
| 1778070112 | 9.44° C | 93% | 1006.1 hPa | 0.25 mm | 1.79 m/s, 304° | 129 W/m² | - |
| 1778070052 | 9.44° C | 93% | 1006 hPa | 0.25 mm | 2.24 m/s, 244° | 130 W/m² | - |
| 1778069932 | 9.44° C | 93% | 1005.9 hPa | 0.51 mm | 0.89 m/s, 3° | 156 W/m² | - |
| 1778069872 | 9.44° C | 93% | 1005.9 hPa | 0.51 mm | 0 m/s | 168 W/m² | - |
| 1778069332 | 9.44° C | 94% | 1006 hPa | 0.25 mm | 1.34 m/s, 287° | 161 W/m² | - |
| 1778069272 | 9.44° C | 94% | 1005.9 hPa | 0.25 mm | 0.89 m/s, 21° | 134 W/m² | - |
| 1778069152 | 9.44° C | 94% | 1005.8 hPa | 0.25 mm | 0.45 m/s, 324° | 97 W/m² | - |
* Rain latest hour (hover to see other rain measurements)
** Current wind speed in m/s (hover to see current wind gust speed)